Time;durP1;ratioP1;P1;durP2;ratioP2;P2;SDS_P1;SDS_P2;PMS_P1;PMS_P2;Temp;Humidity;BMP_temperature;BMP_pressure;BME280_temperature;BME280_humidity;BME280_pressure;Samples;Min_cycle;Max_cycle;Signal;HPM_P1;HPM_P2
2023/01/20 00:00:24;;;;;;;15.37;10.57;;;-0.90;99.90;;;;;;5032089;28;20568;-36
2023/01/20 00:02:49;;;;;;;14.90;11.40;;;-0.90;99.90;;;;;;5016239;28;20180;-39
2023/01/20 00:05:15;;;;;;;18.43;11.13;;;-0.90;99.90;;;;;;5033930;28;20229;-37
2023/01/20 00:07:41;;;;;;;15.83;10.87;;;-0.90;99.90;;;;;;5032753;28;20199;-38
2023/01/20 00:10:07;;;;;;;15.50;10.47;;;-0.90;99.90;;;;;;5015711;28;20199;-38
2023/01/20 00:12:33;;;;;;;16.47;10.47;;;-0.90;99.90;;;;;;4999589;28;20266;-36
2023/01/20 00:14:59;;;;;;;17.10;11.27;;;-0.90;99.90;;;;;;5016217;28;20281;-39
2023/01/20 00:17:26;;;;;;;15.73;10.63;;;-1.00;99.90;;;;;;5032234;28;20238;-35
2023/01/20 00:19:52;;;;;;;17.53;11.47;;;-1.00;99.90;;;;;;5033457;28;20196;-39
2023/01/20 00:22:18;;;;;;;18.20;12.30;;;-1.00;99.90;;;;;;5033326;28;20273;-40
2023/01/20 00:24:43;;;;;;;21.03;13.10;;;-1.00;99.90;;;;;;5031927;28;20326;-38
2023/01/20 00:27:09;;;;;;;20.73;12.40;;;-1.10;99.90;;;;;;5015610;28;20209;-41
2023/01/20 00:29:35;;;;;;;20.17;12.67;;;-1.10;99.90;;;;;;4999288;28;20222;-36
2023/01/20 00:32:01;;;;;;;21.50;12.90;;;-1.10;99.90;;;;;;5033280;28;20185;-36
2023/01/20 00:34:27;;;;;;;17.93;11.87;;;-1.20;99.90;;;;;;5032462;28;20182;-36
2023/01/20 00:36:52;;;;;;;17.37;11.73;;;-1.20;99.90;;;;;;5015923;28;20179;-37
2023/01/20 00:39:18;;;;;;;17.70;11.80;;;-1.20;99.90;;;;;;5032737;28;20188;-38
2023/01/20 00:41:45;;;;;;;17.40;11.63;;;-1.10;99.90;;;;;;5032154;28;20205;-37
2023/01/20 00:44:11;;;;;;;19.30;12.40;;;-1.20;99.90;;;;;;5031768;28;20174;-37
2023/01/20 00:46:37;;;;;;;16.97;11.10;;;-1.20;99.90;;;;;;5033451;28;20271;-39
2023/01/20 00:49:03;;;;;;;20.43;12.67;;;-1.20;99.90;;;;;;5015057;28;20236;-35
2023/01/20 00:51:28;;;;;;;19.47;12.20;;;-1.20;99.90;;;;;;5015426;28;20210;-36
2023/01/20 00:53:54;;;;;;;19.23;12.07;;;-1.10;99.90;;;;;;5031595;28;20187;-36
2023/01/20 00:56:20;;;;;;;18.77;11.83;;;-1.10;99.90;;;;;;5015325;28;20618;-38
2023/01/20 00:58:46;;;;;;;17.60;11.57;;;-1.10;99.90;;;;;;5031051;28;20210;-40
2023/01/20 01:01:12;;;;;;;18.33;12.17;;;-1.10;99.90;;;;;;5016541;28;20210;-35
2023/01/20 01:03:38;;;;;;;19.77;12.67;;;-1.00;99.90;;;;;;5016067;28;20207;-39
2023/01/20 01:06:08;;;;;;;20.73;13.10;;;-1.00;99.90;;;;;;5016600;28;20217;-38
2023/01/20 01:08:34;;;;;;;21.23;13.73;;;-1.00;99.90;;;;;;5016412;28;20338;-39
2023/01/20 01:11:00;;;;;;;21.27;13.97;;;-1.00;99.90;;;;;;5016565;28;20183;-35
2023/01/20 01:13:26;;;;;;;16.10;12.03;;;-1.00;99.90;;;;;;5028654;28;20179;-36
2023/01/20 01:15:52;;;;;;;16.50;10.93;;;-1.00;99.90;;;;;;5016696;28;20183;-35
2023/01/20 01:18:18;;;;;;;15.43;11.00;;;-0.90;99.90;;;;;;5032888;28;20200;-37
2023/01/20 01:20:43;;;;;;;15.40;10.97;;;-0.90;99.90;;;;;;5033032;28;20181;-38
2023/01/20 01:23:10;;;;;;;15.27;10.23;;;-0.90;99.90;;;;;;5031494;28;20201;-36
2023/01/20 01:25:36;;;;;;;15.30;10.67;;;-0.90;99.90;;;;;;4999162;28;20183;-37
2023/01/20 01:28:02;;;;;;;14.00;9.40;;;-0.90;99.90;;;;;;5015003;28;20688;-35
2023/01/20 01:30:29;;;;;;;12.47;8.70;;;-0.90;99.90;;;;;;5015687;28;20182;-42
2023/01/20 01:32:54;;;;;;;14.00;8.50;;;-0.80;99.90;;;;;;5033463;28;20175;-41
2023/01/20 01:35:20;;;;;;;12.17;8.77;;;-0.80;99.90;;;;;;5033416;28;20184;-43
2023/01/20 01:37:46;;;;;;;11.87;8.23;;;-0.80;99.90;;;;;;5016098;28;20199;-42
2023/01/20 01:40:12;;;;;;;11.67;7.40;;;-0.80;99.90;;;;;;5015888;28;20186;-42
2023/01/20 01:42:38;;;;;;;13.03;7.57;;;-0.80;99.90;;;;;;5032474;28;20207;-42
2023/01/20 01:45:10;;;;;;;9.67;7.57;;;-0.80;99.90;;;;;;5033622;28;20225;-43
2023/01/20 01:48:23;;;;;;;10.37;7.50;;;-0.80;99.90;;;;;;5015617;28;20194;-42
2023/01/20 01:51:26;;;;;;;14.33;8.77;;;-0.80;99.90;;;;;;4944786;29;20186;-42
2023/01/20 01:54:06;;;;;;;15.03;9.80;;;-0.80;99.90;;;;;;4931405;29;20333;-42
2023/01/20 01:56:33;;;;;;;12.40;9.73;;;-0.90;99.90;;;;;;4999296;28;20192;-42
2023/01/20 01:59:01;;;;;;;18.53;11.57;;;-0.90;99.90;;;;;;5014706;28;20214;-40
2023/01/20 02:01:28;;;;;;;20.93;12.43;;;-0.90;99.90;;;;;;5015499;28;20305;-42
2023/01/20 02:04:06;;;;;;;17.67;12.37;;;-0.90;99.90;;;;;;4999179;28;20163;-41
2023/01/20 02:06:34;;;;;;;15.93;11.53;;;-0.90;99.90;;;;;;5031924;28;20168;-41
2023/01/20 02:09:01;;;;;;;13.80;9.70;;;-0.90;99.90;;;;;;5032945;28;20203;-42
2023/01/20 02:11:30;;;;;;;14.43;10.40;;;-0.90;99.90;;;;;;5032000;28;20196;-42
2023/01/20 02:13:56;;;;;;;14.93;10.70;;;-0.90;99.90;;;;;;5031144;28;20176;-41
2023/01/20 02:16:31;;;;;;;16.77;11.67;;;-0.90;99.90;;;;;;5033163;28;20210;-42
2023/01/20 02:19:12;;;;;;;17.43;11.07;;;-1.00;99.90;;;;;;5032319;28;20303;-42
2023/01/20 02:21:50;;;;;;;15.30;10.33;;;-1.00;99.90;;;;;;4998880;28;20289;-42
2023/01/20 02:24:31;;;;;;;16.93;11.43;;;-1.00;99.90;;;;;;5032925;28;20200;-42
2023/01/20 02:27:18;;;;;;;13.47;9.87;;;-1.00;99.90;;;;;;5031661;28;20188;-42
2023/01/20 02:30:14;;;;;;;17.00;11.13;;;-1.00;99.90;;;;;;5031814;28;20192;-42
2023/01/20 02:32:57;;;;;;;15.70;10.87;;;-1.00;99.90;;;;;;5032743;28;20178;-42
2023/01/20 02:35:49;;;;;;;16.03;10.40;;;-1.00;99.90;;;;;;4999232;28;20234;-42
2023/01/20 02:38:31;;;;;;;12.83;8.87;;;-1.00;99.90;;;;;;5004344;28;20218;-42
2023/01/20 02:41:13;;;;;;;13.07;9.30;;;-1.00;99.90;;;;;;5031119;28;20214;-42
2023/01/20 02:44:15;;;;;;;16.87;10.47;;;-1.10;99.90;;;;;;5015089;28;20171;-42
2023/01/20 02:46:56;;;;;;;12.07;9.33;;;-1.10;99.90;;;;;;5021551;28;20236;-42
2023/01/20 02:50:09;;;;;;;16.40;10.23;;;-1.10;99.90;;;;;;5014144;28;20213;-42
2023/01/20 02:52:41;;;;;;;13.37;9.37;;;-1.10;99.90;;;;;;5002291;28;20179;-42
2023/01/20 02:55:17;;;;;;;12.77;8.70;;;-1.00;99.90;;;;;;4997341;28;20173;-42
2023/01/20 02:57:47;;;;;;;10.40;7.80;;;-1.00;99.90;;;;;;5012296;28;20201;-41
2023/01/20 03:00:22;;;;;;;14.83;8.17;;;-1.00;99.90;;;;;;4994775;28;20175;-40
2023/01/20 03:02:52;;;;;;;13.03;8.20;;;-1.00;99.90;;;;;;5014548;28;20212;-42
2023/01/20 03:05:27;;;;;;;15.37;9.10;;;-1.00;99.90;;;;;;5014680;28;20218;-42
2023/01/20 03:07:54;;;;;;;16.73;10.77;;;-1.00;99.90;;;;;;5014488;28;20202;-42
2023/01/20 03:10:23;;;;;;;18.97;10.17;;;-1.00;99.90;;;;;;5031230;28;20170;-42
2023/01/20 03:13:01;;;;;;;13.87;9.43;;;-1.00;99.90;;;;;;5036193;28;20236;-42
2023/01/20 03:15:35;;;;;;;14.43;9.73;;;-1.00;99.90;;;;;;5035171;28;20543;-42
2023/01/20 03:18:01;;;;;;;15.37;9.60;;;-1.00;99.90;;;;;;5034424;28;20226;-42
2023/01/20 03:20:28;;;;;;;15.80;10.23;;;-1.00;99.90;;;;;;5035778;28;20202;-43
2023/01/20 03:22:54;;;;;;;14.73;10.20;;;-1.00;99.90;;;;;;5034754;28;20206;-33
2023/01/20 03:25:19;;;;;;;17.33;11.23;;;-1.10;99.90;;;;;;5018234;28;20175;-34
2023/01/20 03:27:46;;;;;;;17.33;10.90;;;-1.10;99.90;;;;;;5018086;28;20206;-38
2023/01/20 03:30:13;;;;;;;16.37;10.77;;;-1.10;99.90;;;;;;5016418;28;20183;-38
2023/01/20 03:32:46;;;;;;;16.50;11.73;;;-1.10;99.90;;;;;;4998899;28;20181;-36
2023/01/20 03:35:14;;;;;;;16.37;11.20;;;-1.20;99.90;;;;;;5015103;28;20191;-34
2023/01/20 03:37:42;;;;;;;15.70;11.17;;;-1.20;99.90;;;;;;5015923;28;20199;-35
2023/01/20 03:40:09;;;;;;;14.97;10.47;;;-1.20;99.90;;;;;;4998408;28;20187;-37
2023/01/20 03:42:55;;;;;;;16.27;10.57;;;-1.20;99.90;;;;;;4998180;28;20291;-36
2023/01/20 03:45:40;;;;;;;14.50;10.43;;;-1.30;99.90;;;;;;4985123;28;20198;-33
2023/01/20 03:48:21;;;;;;;15.60;10.70;;;-1.30;99.90;;;;;;4998173;28;20204;-37
2023/01/20 03:50:55;;;;;;;16.20;10.60;;;-1.30;99.90;;;;;;5025175;28;20174;-36
2023/01/20 03:53:44;;;;;;;15.40;10.97;;;-1.30;99.90;;;;;;5034297;28;20186;-41
2023/01/20 03:56:31;;;;;;;15.77;9.70;;;-1.30;99.90;;;;;;5035444;28;20182;-41
2023/01/20 03:58:59;;;;;;;15.13;10.67;;;-1.30;99.90;;;;;;5034504;28;20294;-42
2023/01/20 04:01:33;;;;;;;14.73;10.23;;;-1.30;99.90;;;;;;5001681;28;20210;-42
2023/01/20 04:04:01;;;;;;;16.03;10.97;;;-1.40;99.90;;;;;;5034504;28;20212;-34
2023/01/20 04:06:29;;;;;;;15.37;10.30;;;-1.40;99.90;;;;;;5034634;28;20531;-36
2023/01/20 04:09:01;;;;;;;14.87;10.67;;;-1.40;99.90;;;;;;5034184;28;20263;-33
2023/01/20 04:11:27;;;;;;;17.30;10.17;;;-1.40;99.90;;;;;;5035278;28;20237;-36
2023/01/20 04:13:53;;;;;;;15.67;10.40;;;-1.50;99.90;;;;;;5034147;28;20738;-40
2023/01/20 04:16:21;;;;;;;16.03;10.10;;;-1.50;99.90;;;;;;5034279;28;20186;-36
2023/01/20 04:18:49;;;;;;;16.67;10.70;;;-1.50;99.90;;;;;;5033602;28;20242;-38
2023/01/20 04:21:25;;;;;;;14.97;10.63;;;-1.50;99.90;;;;;;5026285;28;20210;-36
2023/01/20 04:23:59;;;;;;;15.00;11.10;;;-1.50;99.90;;;;;;5014511;28;20234;-37
2023/01/20 04:26:25;;;;;;;15.67;10.40;;;-1.50;99.90;;;;;;5014407;28;20171;-39
2023/01/20 04:28:50;;;;;;;17.50;10.33;;;-1.50;99.90;;;;;;4997491;28;20259;-36
2023/01/20 04:31:17;;;;;;;16.27;10.43;;;-1.50;99.90;;;;;;4997719;28;20271;-38
2023/01/20 04:33:42;;;;;;;18.00;11.67;;;-1.50;99.90;;;;;;5029392;28;20179;-33
2023/01/20 04:36:08;;;;;;;16.93;11.63;;;-1.50;99.90;;;;;;5033765;28;20214;-37
2023/01/20 04:38:34;;;;;;;16.97;12.40;;;-1.50;99.90;;;;;;5016913;28;20229;-33
2023/01/20 04:41:00;;;;;;;18.10;12.87;;;-1.40;99.90;;;;;;5032526;28;20202;-38
2023/01/20 04:43:26;;;;;;;17.30;12.20;;;-1.40;99.90;;;;;;5016580;28;20213;-36
2023/01/20 04:45:52;;;;;;;16.70;11.00;;;-1.40;99.90;;;;;;5033055;28;20174;-33
2023/01/20 04:48:18;;;;;;;16.33;10.83;;;-1.40;99.90;;;;;;5031904;28;20248;-39
2023/01/20 04:50:44;;;;;;;15.00;10.80;;;-1.40;99.90;;;;;;5028818;28;20276;-38
2023/01/20 04:53:12;;;;;;;20.17;12.97;;;-1.50;99.90;;;;;;5010145;28;20266;-38
2023/01/20 04:55:38;;;;;;;20.77;13.93;;;-1.50;99.90;;;;;;5032434;28;20196;-34
2023/01/20 04:58:04;;;;;;;20.13;13.07;;;-1.50;99.90;;;;;;5013267;28;20209;-39
2023/01/20 05:00:30;;;;;;;19.17;12.03;;;-1.50;99.90;;;;;;5031224;28;20184;-35
2023/01/20 05:02:57;;;;;;;13.87;10.13;;;-1.50;99.90;;;;;;5014413;28;20199;-34
2023/01/20 05:05:23;;;;;;;16.03;11.10;;;-1.50;99.90;;;;;;5045255;28;20236;-34
2023/01/20 05:07:54;;;;;;;19.43;11.70;;;-1.50;99.90;;;;;;5038842;28;20205;-38
2023/01/20 05:10:20;;;;;;;14.97;11.00;;;-1.40;99.90;;;;;;5022038;28;20245;-35
2023/01/20 05:12:46;;;;;;;16.03;11.40;;;-1.40;99.90;;;;;;5012263;28;20683;-38
2023/01/20 05:15:12;;;;;;;17.37;11.90;;;-1.40;99.90;;;;;;5015884;28;20187;-37
2023/01/20 05:17:39;;;;;;;17.27;11.57;;;-1.40;99.90;;;;;;5031392;28;20261;-36
2023/01/20 05:20:06;;;;;;;14.73;10.83;;;-1.40;99.90;;;;;;5028617;28;20208;-34
2023/01/20 05:22:32;;;;;;;18.10;11.43;;;-1.40;99.90;;;;;;5031948;28;20207;-37
2023/01/20 05:24:58;;;;;;;15.33;11.40;;;-1.40;99.90;;;;;;5022453;28;20189;-42
2023/01/20 05:27:25;;;;;;;14.90;11.37;;;-1.40;99.90;;;;;;5014098;28;20230;-42
2023/01/20 05:29:50;;;;;;;15.70;10.70;;;-1.40;99.90;;;;;;5030824;28;20230;-41
2023/01/20 05:32:16;;;;;;;17.43;11.47;;;-1.30;99.90;;;;;;4998999;28;20174;-42
2023/01/20 05:34:42;;;;;;;14.93;11.07;;;-1.30;99.90;;;;;;5013407;28;20205;-34
2023/01/20 05:37:07;;;;;;;14.87;11.13;;;-1.30;99.90;;;;;;5014294;28;20202;-37
2023/01/20 05:39:33;;;;;;;19.97;12.53;;;-1.30;99.90;;;;;;5013899;28;20245;-35
2023/01/20 05:42:01;;;;;;;17.80;11.77;;;-1.30;99.90;;;;;;5031899;28;20211;-38
2023/01/20 05:44:26;;;;;;;20.33;12.87;;;-1.30;99.90;;;;;;5031912;28;20172;-42
2023/01/20 05:46:52;;;;;;;18.17;12.40;;;-1.20;99.90;;;;;;5030415;28;20186;-35
2023/01/20 05:49:18;;;;;;;21.50;14.37;;;-1.20;99.90;;;;;;5030419;28;20190;-36
2023/01/20 05:51:43;;;;;;;26.33;17.93;;;-1.20;99.90;;;;;;5013544;28;20274;-37
2023/01/20 05:54:09;;;;;;;24.83;16.70;;;-1.20;99.90;;;;;;5031908;28;20206;-41
2023/01/20 05:56:35;;;;;;;17.83;13.57;;;-1.20;99.90;;;;;;5014063;28;20221;-41
2023/01/20 05:59:01;;;;;;;18.50;12.70;;;-1.20;99.90;;;;;;5031644;28;20206;-41
2023/01/20 06:01:27;;;;;;;19.57;12.30;;;-1.20;99.90;;;;;;5030427;28;20207;-41
2023/01/20 06:03:52;;;;;;;15.83;11.40;;;-1.20;99.90;;;;;;5030440;28;20186;-42
2023/01/20 06:06:18;;;;;;;16.63;11.77;;;-1.20;99.90;;;;;;5031998;28;20194;-41
2023/01/20 06:08:44;;;;;;;15.33;10.77;;;-1.20;99.90;;;;;;4996260;28;20209;-37
2023/01/20 06:11:13;;;;;;;16.70;10.93;;;-1.20;99.90;;;;;;5031472;28;20222;-39
2023/01/20 06:13:39;;;;;;;15.40;11.37;;;-1.20;99.90;;;;;;5014106;28;20183;-37
2023/01/20 06:16:05;;;;;;;15.40;10.83;;;-1.20;99.90;;;;;;5031021;28;20189;-35
2023/01/20 06:18:32;;;;;;;18.97;10.93;;;-1.20;99.90;;;;;;5032095;28;20222;-35
2023/01/20 06:20:58;;;;;;;15.67;10.93;;;-1.20;99.90;;;;;;5031479;28;20171;-37
2023/01/20 06:23:25;;;;;;;15.23;10.67;;;-1.20;99.90;;;;;;5025607;28;20276;-35
2023/01/20 06:26:17;;;;;;;15.40;10.30;;;-1.30;99.90;;;;;;5012400;28;20179;-37
2023/01/20 06:28:43;;;;;;;16.27;10.80;;;-1.30;99.90;;;;;;4995986;28;20291;-33
2023/01/20 06:31:12;;;;;;;17.33;11.00;;;-1.30;99.90;;;;;;5031501;28;20210;-36
2023/01/20 06:33:38;;;;;;;20.13;11.17;;;-1.30;99.90;;;;;;5032533;28;20389;-39
2023/01/20 06:36:05;;;;;;;16.23;11.40;;;-1.30;99.90;;;;;;5014447;28;20232;-35
2023/01/20 06:38:33;;;;;;;16.67;10.83;;;-1.30;99.90;;;;;;5012629;28;20234;-37
2023/01/20 06:41:01;;;;;;;16.87;11.60;;;-1.30;99.90;;;;;;5030427;28;20193;-34
2023/01/20 06:43:28;;;;;;;15.23;10.90;;;-1.30;99.90;;;;;;5013352;28;20265;-36
2023/01/20 06:45:59;;;;;;;18.33;11.80;;;-1.30;99.90;;;;;;5030780;28;20198;-35
2023/01/20 06:48:25;;;;;;;23.53;16.73;;;-1.30;99.90;;;;;;5013253;28;20203;-36
2023/01/20 06:50:50;;;;;;;20.13;13.97;;;-1.30;99.90;;;;;;5012790;28;20252;-39
2023/01/20 06:53:16;;;;;;;21.67;15.87;;;-1.40;99.90;;;;;;5028844;28;20179;-36
2023/01/20 06:55:42;;;;;;;19.40;14.03;;;-1.40;99.90;;;;;;5030277;28;20178;-34
2023/01/20 06:58:08;;;;;;;17.63;12.67;;;-1.40;99.90;;;;;;4996229;28;20233;-38
2023/01/20 07:00:33;;;;;;;21.00;13.30;;;-1.40;99.90;;;;;;5026088;28;20186;-33
2023/01/20 07:02:59;;;;;;;18.53;12.50;;;-1.40;99.90;;;;;;5031669;28;20206;-36
2023/01/20 07:05:25;;;;;;;19.87;12.27;;;-1.40;99.90;;;;;;5029733;28;20202;-35
2023/01/20 07:07:51;;;;;;;19.63;11.73;;;-1.40;99.90;;;;;;5029489;28;20222;-36
2023/01/20 07:10:17;;;;;;;18.37;12.73;;;-1.30;99.90;;;;;;5028913;28;20185;-35
2023/01/20 07:12:43;;;;;;;20.83;14.17;;;-1.30;99.90;;;;;;5029517;28;20179;-34
2023/01/20 07:15:09;;;;;;;20.50;13.40;;;-1.30;99.90;;;;;;5029920;28;20194;-35
2023/01/20 07:17:35;;;;;;;18.87;12.63;;;-1.30;99.90;;;;;;5029644;28;20207;-38
2023/01/20 07:20:01;;;;;;;20.90;13.07;;;-1.30;99.90;;;;;;5011978;28;20248;-33
2023/01/20 07:22:26;;;;;;;19.93;12.77;;;-1.30;99.90;;;;;;5021731;28;20203;-35
2023/01/20 07:24:52;;;;;;;18.60;12.83;;;-1.30;99.90;;;;;;5009453;28;20191;-40
2023/01/20 07:27:18;;;;;;;21.23;14.00;;;-1.30;99.90;;;;;;5025900;28;20199;-36
2023/01/20 07:29:44;;;;;;;20.30;14.07;;;-1.30;99.90;;;;;;5026208;28;20195;-38
2023/01/20 07:32:09;;;;;;;21.27;13.97;;;-1.20;99.90;;;;;;5026435;28;20211;-41
2023/01/20 07:34:35;;;;;;;19.17;13.73;;;-1.20;99.90;;;;;;5010746;28;20186;-38
2023/01/20 07:37:01;;;;;;;19.03;14.03;;;-1.20;99.90;;;;;;5012419;28;20187;-38
2023/01/20 07:39:27;;;;;;;22.20;14.70;;;-1.20;99.90;;;;;;5009774;28;20258;-38
2023/01/20 07:41:53;;;;;;;22.27;13.87;;;-1.20;99.90;;;;;;5010806;28;20203;-39
2023/01/20 07:44:19;;;;;;;20.97;13.57;;;-1.20;99.90;;;;;;5025551;28;20172;-38
2023/01/20 07:46:44;;;;;;;21.03;14.00;;;-1.20;99.90;;;;;;5010305;28;20187;-36
2023/01/20 07:49:10;;;;;;;22.93;14.30;;;-1.20;99.90;;;;;;5017086;28;20194;-39
2023/01/20 07:51:36;;;;;;;18.77;13.60;;;-1.10;99.90;;;;;;5012697;28;20182;-38
2023/01/20 07:54:03;;;;;;;18.20;13.53;;;-1.20;99.90;;;;;;5029621;28;20175;-39
2023/01/20 07:56:29;;;;;;;29.63;19.20;;;-1.10;99.90;;;;;;5030135;28;20258;-40
2023/01/20 07:58:56;;;;;;;32.37;21.40;;;-1.10;99.90;;;;;;5032603;28;20225;-39
2023/01/20 08:01:26;;;;;;;33.90;21.97;;;-1.10;99.90;;;;;;5016576;28;20215;-36
2023/01/20 08:03:53;;;;;;;31.43;19.13;;;-1.10;99.90;;;;;;5033141;28;20755;-37
2023/01/20 08:06:21;;;;;;;29.20;18.63;;;-1.00;99.90;;;;;;5033046;28;20187;-37
2023/01/20 08:08:47;;;;;;;26.07;16.73;;;-1.00;99.90;;;;;;5016264;28;20199;-38
2023/01/20 08:11:14;;;;;;;29.67;19.63;;;-1.00;99.90;;;;;;5032828;28;20182;-37
2023/01/20 08:13:41;;;;;;;35.57;24.17;;;-1.00;99.90;;;;;;5033773;28;20183;-36
2023/01/20 08:16:09;;;;;;;65.67;28.20;;;-1.00;99.90;;;;;;5033811;28;20179;-39
2023/01/20 08:18:35;;;;;;;38.47;20.70;;;-0.90;99.90;;;;;;5032322;28;20352;-40
2023/01/20 08:21:05;;;;;;;35.97;21.03;;;-0.90;99.90;;;;;;5008202;28;20193;-40
2023/01/20 08:23:32;;;;;;;19.33;12.67;;;-0.90;99.90;;;;;;5013729;28;20247;-36
2023/01/20 08:26:00;;;;;;;18.43;12.03;;;-0.90;99.90;;;;;;5014543;28;20199;-36
2023/01/20 08:28:27;;;;;;;16.10;11.87;;;-0.90;99.90;;;;;;5015067;28;20267;-39
2023/01/20 08:30:53;;;;;;;23.23;15.17;;;-0.80;99.90;;;;;;5006292;28;20172;-40
2023/01/20 08:33:19;;;;;;;19.47;13.10;;;-0.80;99.90;;;;;;5033216;28;20213;-39
2023/01/20 08:35:47;;;;;;;21.93;14.13;;;-0.80;99.90;;;;;;5020533;28;20171;-38
2023/01/20 08:38:13;;;;;;;19.90;13.33;;;-0.80;99.90;;;;;;5033023;28;20202;-37
2023/01/20 08:40:42;;;;;;;18.93;12.70;;;-0.70;99.90;;;;;;4994898;28;20548;-38
2023/01/20 08:43:10;;;;;;;19.70;12.73;;;-0.70;99.90;;;;;;5014269;28;20556;-36
2023/01/20 08:45:36;;;;;;;19.00;13.67;;;-0.70;99.90;;;;;;5029770;28;20286;-37
2023/01/20 08:48:02;;;;;;;17.60;12.20;;;-0.60;99.90;;;;;;5013426;28;20763;-38
2023/01/20 08:50:28;;;;;;;17.43;12.37;;;-0.60;99.90;;;;;;5029080;28;20184;-38
2023/01/20 08:52:53;;;;;;;15.90;11.77;;;-0.50;99.90;;;;;;5030430;28;20179;-39
2023/01/20 08:55:19;;;;;;;19.17;12.07;;;-0.50;99.90;;;;;;5011725;28;20217;-39
2023/01/20 08:57:45;;;;;;;16.73;12.30;;;-0.40;99.90;;;;;;5029054;28;20206;-38
2023/01/20 09:00:12;;;;;;;18.23;12.33;;;-0.40;99.90;;;;;;5029716;28;20306;-41
2023/01/20 09:02:39;;;;;;;19.43;12.50;;;-0.40;99.90;;;;;;5030058;28;20208;-36
2023/01/20 09:05:07;;;;;;;18.23;12.43;;;-0.30;99.90;;;;;;5028440;28;20179;-39
2023/01/20 09:07:33;;;;;;;19.83;13.10;;;-0.20;99.90;;;;;;5029811;28;20195;-40
2023/01/20 09:09:59;;;;;;;17.10;12.70;;;-0.20;99.90;;;;;;5013148;28;20599;-37
2023/01/20 09:12:24;;;;;;;16.77;12.00;;;-0.30;99.90;;;;;;5015524;28;20184;-39
2023/01/20 09:14:50;;;;;;;15.77;10.50;;;-0.20;99.90;;;;;;5013669;28;20172;-37
2023/01/20 09:17:16;;;;;;;18.17;12.30;;;-0.10;99.90;;;;;;5030482;28;20197;-41
2023/01/20 09:19:42;;;;;;;17.10;12.53;;;-0.10;99.90;;;;;;5014758;28;20196;-36
2023/01/20 09:22:08;;;;;;;18.57;12.63;;;-0.10;99.90;;;;;;5014866;28;20254;-40
2023/01/20 09:24:34;;;;;;;15.93;11.67;;;-0.10;99.90;;;;;;5030353;28;20180;-39
2023/01/20 09:27:00;;;;;;;19.33;14.13;;;0.00;99.90;;;;;;5032367;28;20182;-39
2023/01/20 09:29:26;;;;;;;18.50;12.63;;;0.00;99.90;;;;;;5034278;28;20175;-38
2023/01/20 09:31:59;;;;;;;21.97;13.50;;;0.00;99.90;;;;;;5034580;28;20205;-36
2023/01/20 09:34:28;;;;;;;18.23;12.37;;;0.00;99.90;;;;;;5016606;28;20191;-39
2023/01/20 09:45:34;;;;;;;23.40;13.17;;;0.20;99.90;;;;;;5030940;28;20555;-40
2023/01/20 09:54:05;;;;;;;20.93;13.70;;;0.30;99.90;;;;;;5012616;28;20225;-41
2023/01/20 09:56:39;;;;;;;22.67;15.03;;;0.40;99.90;;;;;;5029681;28;20185;-38
2023/01/20 09:59:31;;;;;;;22.57;14.70;;;0.40;99.90;;;;;;5017779;28;20740;-35
2023/01/20 10:02:06;;;;;;;24.10;15.33;;;0.40;99.90;;;;;;5034065;28;20219;-36
2023/01/20 10:04:40;;;;;;;27.40;14.67;;;0.40;99.90;;;;;;5033179;28;20177;-40
2023/01/20 10:07:33;;;;;;;24.97;15.03;;;0.40;99.90;;;;;;5022054;28;20195;-41
2023/01/20 10:10:10;;;;;;;21.27;13.67;;;0.50;99.90;;;;;;5030381;28;20181;-37
2023/01/20 10:12:52;;;;;;;18.97;13.20;;;0.50;99.90;;;;;;5031967;28;20178;-39
2023/01/20 10:15:24;;;;;;;20.70;13.50;;;0.60;99.90;;;;;;5035982;28;20246;-41
2023/01/20 10:17:56;;;;;;;18.17;12.67;;;0.70;99.90;;;;;;5045032;28;20199;-38
2023/01/20 10:20:45;;;;;;;16.13;10.73;;;0.60;99.90;;;;;;5027268;28;20192;-40
2023/01/20 10:23:23;;;;;;;17.10;11.90;;;0.70;99.90;;;;;;5017533;28;20224;-38
2023/01/20 10:26:04;;;;;;;16.20;11.27;;;0.70;99.90;;;;;;5020193;28;20187;-41
2023/01/20 10:28:58;;;;;;;16.27;10.50;;;0.70;99.90;;;;;;5027162;28;20216;-40
2023/01/20 10:31:47;;;;;;;14.63;9.43;;;0.80;99.90;;;;;;5033125;28;20201;-39
2023/01/20 10:34:19;;;;;;;14.20;9.97;;;0.80;99.90;;;;;;5026264;28;20204;-37
2023/01/20 10:37:04;;;;;;;12.40;9.53;;;0.90;99.90;;;;;;5033347;28;20188;-38
2023/01/20 10:39:42;;;;;;;14.53;9.67;;;0.90;99.90;;;;;;5013624;28;20190;-38
2023/01/20 10:42:12;;;;;;;11.80;9.07;;;1.00;99.90;;;;;;5039883;28;20238;-41
2023/01/20 10:44:40;;;;;;;13.67;8.40;;;1.00;99.90;;;;;;5033336;28;20554;-41
2023/01/20 10:47:31;;;;;;;13.90;9.23;;;1.00;99.90;;;;;;5033151;28;20803;-40
2023/01/20 10:50:18;;;;;;;13.60;9.20;;;1.00;99.90;;;;;;5036639;28;20212;-39
2023/01/20 10:53:03;;;;;;;10.60;8.57;;;1.10;99.90;;;;;;5030720;28;20212;-38
2023/01/20 10:55:57;;;;;;;12.93;8.90;;;1.10;99.90;;;;;;5030712;28;20181;-40
2023/01/20 10:58:32;;;;;;;14.67;8.07;;;1.20;99.90;;;;;;5012984;28;20205;-38
2023/01/20 11:01:03;;;;;;;11.30;8.27;;;1.20;99.90;;;;;;5029590;28;20181;-40
2023/01/20 11:03:36;;;;;;;12.23;8.57;;;1.30;99.90;;;;;;5012419;28;20178;-40
2023/01/20 11:06:04;;;;;;;11.63;8.77;;;1.40;99.90;;;;;;5028281;28;20177;-36
2023/01/20 11:08:32;;;;;;;13.43;9.13;;;1.50;99.90;;;;;;5028329;28;20296;-39
2023/01/20 11:11:14;;;;;;;11.00;8.10;;;1.60;99.90;;;;;;5020715;28;20182;-41
2023/01/20 11:13:40;;;;;;;11.57;8.23;;;1.60;99.90;;;;;;5017189;28;20189;-42
2023/01/20 11:16:27;;;;;;;11.87;7.83;;;1.70;99.90;;;;;;5032887;28;20205;-40
2023/01/20 11:19:01;;;;;;;12.87;8.60;;;1.70;99.90;;;;;;5030527;28;20703;-40
2023/01/20 11:21:30;;;;;;;12.40;8.03;;;1.70;99.90;;;;;;5028377;28;20673;-38
2023/01/20 11:23:57;;;;;;;10.63;7.30;;;1.80;99.90;;;;;;5016023;28;20221;-40
2023/01/20 11:26:35;;;;;;;8.90;7.03;;;1.80;99.90;;;;;;5014243;28;20183;-38
2023/01/20 11:29:09;;;;;;;7.13;6.30;;;1.90;99.90;;;;;;5032631;28;20202;-39
2023/01/20 11:31:47;;;;;;;8.23;6.27;;;2.00;99.90;;;;;;5052179;28;20186;-40
2023/01/20 11:34:30;;;;;;;24.23;15.27;;;2.10;99.90;;;;;;5029926;28;20181;-41
2023/01/20 11:37:05;;;;;;;19.97;12.37;;;2.10;99.90;;;;;;5016598;28;20182;-39
2023/01/20 11:39:36;;;;;;;10.13;7.10;;;2.30;99.90;;;;;;5032458;28;20182;-40
2023/01/20 11:42:17;;;;;;;12.77;5.97;;;2.40;99.90;;;;;;5032503;28;20205;-41
2023/01/20 11:44:48;;;;;;;10.03;6.83;;;2.50;99.90;;;;;;5029323;28;20173;-40
2023/01/20 11:47:32;;;;;;;11.10;7.33;;;2.70;99.90;;;;;;5015371;28;20292;-41
2023/01/20 11:50:07;;;;;;;29.73;15.57;;;2.90;99.90;;;;;;5026139;28;20195;-38
2023/01/20 11:52:42;;;;;;;10.93;6.37;;;3.10;99.90;;;;;;5023897;28;20182;-40
2023/01/20 11:55:13;;;;;;;6.77;5.37;;;3.30;99.90;;;;;;5027192;28;20181;-42
2023/01/20 11:57:45;;;;;;;8.23;4.97;;;3.30;99.90;;;;;;5047669;28;20261;-39
2023/01/20 12:00:38;;;;;;;6.23;5.07;;;3.40;99.90;;;;;;5041126;28;20181;-40
2023/01/20 12:03:24;;;;;;;8.23;5.53;;;3.40;99.90;;;;;;5013180;28;20221;-42
2023/01/20 12:06:09;;;;;;;7.47;5.50;;;3.40;99.90;;;;;;5028536;28;20182;-42
2023/01/20 12:09:09;;;;;;;8.20;5.07;;;3.50;99.90;;;;;;5032779;28;20197;-41
2023/01/20 12:11:49;;;;;;;7.17;4.97;;;3.60;99.90;;;;;;5032136;28;20206;-40
2023/01/20 12:14:28;;;;;;;8.17;5.10;;;3.60;99.90;;;;;;5032691;28;20192;-42
2023/01/20 12:17:06;;;;;;;6.60;4.50;;;3.60;99.90;;;;;;5049235;28;20183;-39
2023/01/20 12:19:47;;;;;;;8.03;4.53;;;3.70;99.90;;;;;;5048705;28;20202;-41
2023/01/20 12:22:21;;;;;;;7.90;4.70;;;3.70;99.90;;;;;;5025296;28;20241;-40
2023/01/20 12:25:07;;;;;;;5.87;4.43;;;3.70;99.90;;;;;;5011254;28;20321;-41
2023/01/20 12:27:46;;;;;;;5.00;4.40;;;3.80;99.90;;;;;;5015842;28;20202;-39
2023/01/20 12:30:33;;;;;;;6.47;4.27;;;3.80;99.90;;;;;;5033361;28;20174;-41
2023/01/20 12:32:59;;;;;;;6.63;4.37;;;3.90;99.90;;;;;;5032987;28;20174;-41
2023/01/20 12:35:29;;;;;;;7.07;4.27;;;4.00;99.90;;;;;;5033115;28;20232;-42
2023/01/20 12:38:04;;;;;;;7.47;3.97;;;4.00;99.90;;;;;;5033048;28;20206;-41
2023/01/20 12:40:45;;;;;;;5.43;3.67;;;4.10;99.90;;;;;;5033507;28;20193;-41
2023/01/20 12:43:36;;;;;;;3.73;2.93;;;4.10;99.90;;;;;;5032606;28;20198;-42
2023/01/20 12:46:10;;;;;;;5.97;3.50;;;4.20;99.90;;;;;;5031396;28;20182;-41
2023/01/20 12:49:02;;;;;;;4.70;3.80;;;4.10;99.90;;;;;;5033028;28;20207;-38
2023/01/20 12:51:31;;;;;;;7.20;4.00;;;4.10;99.90;;;;;;4998983;28;20201;-39
2023/01/20 12:54:02;;;;;;;5.60;3.10;;;4.10;99.90;;;;;;5031559;28;20174;-40
2023/01/20 12:56:38;;;;;;;5.73;3.53;;;4.10;99.90;;;;;;5031962;28;20178;-41
2023/01/20 12:59:34;;;;;;;7.90;4.80;;;4.00;99.90;;;;;;5033050;28;20214;-40
2023/01/20 13:02:15;;;;;;;3.80;3.20;;;3.80;99.90;;;;;;5014657;28;20628;-42
2023/01/20 13:05:04;;;;;;;5.23;3.40;;;3.70;99.90;;;;;;5031495;28;20273;-40
2023/01/20 13:07:50;;;;;;;5.47;3.67;;;3.80;99.90;;;;;;4973753;28;20211;-38